Magnus Heinason — OW2252 — position and weather

sailwx.info

Track history (hours):
 
Tides and Currents Weather Stations Pressure Air Temp Water Temp Dewpoint Dewpoint Depression Visibility Wind Speed Wind Dir Waves Ship Positions

Oceanographic research ship Magnus Heinason (Faroe Islands)

Detailed information on ship capabilities available from ARCUS's ALIAS (Arctic Logistics Information and Support) project.

Last reported at 2015-Sep-02 14:30 UTC. Time now 2015-Sep-02 21:46 UTC.
Position N 61°58' W 006°43'.

Length 44 m; draft 4 m.

Type: . MMSI: 231041000.

Date/timePositionNaut miles runAvg speedWind from/ knotsBaromVisibWave heightAir tempDewpointWater temp
2015-Sep-02 14:30N 61°58' W 006°43'3 3.4
2015-Sep-02 13:32N 62°00' W 006°46'0 0.0
2015-Sep-02 12:30N 62°00' W 006°46'0 0.0
2015-Sep-02 11:33N 62°00' W 006°46'0 0.0
2015-Sep-02 10:21N 62°00' W 006°46'0 0.0
2015-Sep-02 09:26N 62°00' W 006°46'0 0.0
2015-Sep-02 08:32N 62°00' W 006°46'0 0.0
2015-Sep-01 00:11N 62°00' W 006°46'0 0.0
2015-Aug-31 23:33N 62°00' W 006°46'0 0.0
2015-Aug-31 22:30N 62°00' W 006°46'0 0.0
2015-Aug-30 22:31N 62°00' W 006°46'0 0.0
2015-Aug-30 09:33N 62°00' W 006°46'0 0.0
2015-Aug-30 08:28N 62°00' W 006°46'0 0.0
2015-Aug-30 07:33N 62°00' W 006°46'0 0.0
2015-Aug-30 06:33N 62°00' W 006°46'0 0.0
2015-Aug-30 05:33N 62°00' W 006°46'0 0.0
2015-Aug-30 04:33N 62°00' W 006°46'0 0.0
2015-Aug-30 03:30N 62°00' W 006°46'0 0.0
2015-Aug-30 02:33N 62°00' W 006°46'0 0.0
2015-Aug-30 01:33N 62°00' W 006°46'0 0.0
2015-Aug-30 00:32N 62°00' W 006°46'0 0.0
2015-Aug-29 23:33N 62°00' W 006°46'0 0.0
2015-Aug-29 22:31N 62°00' W 006°46'0 0.0
2015-Aug-29 21:33N 62°00' W 006°46'0 0.0
2015-Aug-29 20:33N 62°00' W 006°46'0 0.0
2015-Aug-29 19:33N 62°00' W 006°46'0 0.0
2015-Aug-29 18:33N 62°00' W 006°46'0 0.0
2015-Aug-29 17:33N 62°00' W 006°46'0 0.0
2015-Aug-29 16:33N 62°00' W 006°46'0 0.0
2015-Aug-29 15:33N 62°00' W 006°46'0 0.0
2015-Aug-29 14:33N 62°00' W 006°46'0 0.0
2015-Aug-29 13:33N 62°00' W 006°46'0 0.0
2015-Aug-29 12:33N 62°00' W 006°46'0 0.0
2015-Aug-29 11:33N 62°00' W 006°46'0 0.0
2015-Aug-29 10:33N 62°00' W 006°46'0 0.0
2015-Aug-29 09:33N 62°00' W 006°46'0 0.0
2015-Aug-29 08:33N 62°00' W 006°46'0 0.0
2015-Aug-29 07:34N 62°00' W 006°46'0 0.0
2015-Aug-29 06:33N 62°00' W 006°46'0 0.0
2015-Aug-29 05:33N 62°00' W 006°46'0 0.0
2015-Aug-29 04:33N 62°00' W 006°46'0 0.0
2015-Aug-29 03:33N 62°00' W 006°46'0 0.0
2015-Aug-29 02:33N 62°00' W 006°46'0 0.0
2015-Aug-29 01:33N 62°00' W 006°46'0 0.0
2015-Aug-29 00:32N 62°00' W 006°46'0 0.0
2015-Aug-28 23:32N 62°00' W 006°46'0 0.0
2015-Aug-28 22:33N 62°00' W 006°46'0 0.0
2015-Aug-28 21:33N 62°00' W 006°46'0 0.0
2015-Aug-28 20:33N 62°00' W 006°46'0 0.0
2015-Aug-28 19:33N 62°00' W 006°46'0 0.0
2015-Aug-28 18:33N 62°00' W 006°46'0 0.0
2015-Aug-28 17:33N 62°00' W 006°46'3 2.9
2015-Aug-28 16:33N 62°03' W 006°47'0 0.4
2015-Aug-28 15:32N 62°04' W 006°48'6 6.2
2015-Aug-28 14:33N 62°10' W 006°46'3 2.7
2015-Aug-28 13:33N 62°07' W 006°45'3 3.0
2015-Aug-28 12:33N 62°04' W 006°44'10 9.8
2015-Aug-28 11:34N 62°10' W 006°27'1 1.0
2015-Aug-28 10:16N 62°11' W 006°26'6 8.6
2015-Aug-28 09:33N 62°05' W 006°31'8 7.4
2015-Aug-28 08:31N 62°01' W 006°44'1 1.2
2015-Aug-28 07:33N 62°00' W 006°46'4 0.1
2015-Aug-26 13:33N 61°57' W 006°44'34 1.9
2015-Aug-25 19:27N 61°43' W 007°50'12 3.8
2015-Aug-25 16:25N 61°54' W 007°47'7 3.2
2015-Aug-25 14:19N 61°56' W 007°33'19 1.1
2015-Aug-24 20:26N 61°40' W 007°57'2 2.9
2015-Aug-24 19:33N 61°42' W 007°53'3 0.8
2015-Aug-24 16:15N 61°42' W 007°48'2 2.6
2015-Aug-24 15:32N 61°42' W 007°44'8 2.8
2015-Aug-24 12:32N 61°40' W 007°26'4 3.5
2015-Aug-24 11:17N 61°44' W 007°23'1 1.1
2015-Aug-24 10:28N 61°45' W 007°23'9 2.2
2015-Aug-24 06:30N 61°48' W 007°05'4 4.4
2015-Aug-24 05:30N 61°51' W 007°12'4 3.7
2015-Aug-24 04:30N 61°53' W 007°19'4 4.6
2015-Aug-24 03:33N 61°56' W 007°14'4 3.0
2015-Aug-24 02:17N 61°55' W 007°21'3 3.6
2015-Aug-24 01:33N 61°53' W 007°24'4 3.7
2015-Aug-24 00:30N 61°49' W 007°21'  
Track history (hours):
 
Tides and Currents Weather Stations Pressure Air Temp Water Temp Dewpoint Dewpoint Depression Visibility Wind Speed Wind Dir Waves Ship Positions

Oceanographic research ship Magnus Heinason (Faroe Islands)

Detailed information on ship capabilities available from ARCUS's ALIAS (Arctic Logistics Information and Support) project.

Last reported at 2015-Sep-02 14:30 UTC. Time now 2015-Sep-02 21:46 UTC.
Position N 61°58' W 006°43'.

Length 44 m; draft 4 m.

Type: . MMSI: 231041000.

Date/timePositionNaut miles runAvg speedWind from/ knotsBaromVisibWave heightAir tempDewpointWater temp
2015-Sep-02 14:30N 61°58' W 006°43'3 3.4
2015-Sep-02 13:32N 62°00' W 006°46'0 0.0
2015-Sep-02 12:30N 62°00' W 006°46'0 0.0
2015-Sep-02 11:33N 62°00' W 006°46'0 0.0
2015-Sep-02 10:21N 62°00' W 006°46'0 0.0
2015-Sep-02 09:26N 62°00' W 006°46'0 0.0
2015-Sep-02 08:32N 62°00' W 006°46'0 0.0
2015-Sep-01 00:11N 62°00' W 006°46'0 0.0
2015-Aug-31 23:33N 62°00' W 006°46'0 0.0
2015-Aug-31 22:30N 62°00' W 006°46'0 0.0
2015-Aug-30 22:31N 62°00' W 006°46'0 0.0
2015-Aug-30 09:33N 62°00' W 006°46'0 0.0
2015-Aug-30 08:28N 62°00' W 006°46'0 0.0
2015-Aug-30 07:33N 62°00' W 006°46'0 0.0
2015-Aug-30 06:33N 62°00' W 006°46'0 0.0
2015-Aug-30 05:33N 62°00' W 006°46'0 0.0
2015-Aug-30 04:33N 62°00' W 006°46'0 0.0
2015-Aug-30 03:30N 62°00' W 006°46'0 0.0
2015-Aug-30 02:33N 62°00' W 006°46'0 0.0
2015-Aug-30 01:33N 62°00' W 006°46'0 0.0
2015-Aug-30 00:32N 62°00' W 006°46'0 0.0
2015-Aug-29 23:33N 62°00' W 006°46'0 0.0
2015-Aug-29 22:31N 62°00' W 006°46'0 0.0
2015-Aug-29 21:33N 62°00' W 006°46'0 0.0
2015-Aug-29 20:33N 62°00' W 006°46'0 0.0
2015-Aug-29 19:33N 62°00' W 006°46'0 0.0
2015-Aug-29 18:33N 62°00' W 006°46'0 0.0
2015-Aug-29 17:33N 62°00' W 006°46'0 0.0
2015-Aug-29 16:33N 62°00' W 006°46'0 0.0
2015-Aug-29 15:33N 62°00' W 006°46'0 0.0
2015-Aug-29 14:33N 62°00' W 006°46'0 0.0
2015-Aug-29 13:33N 62°00' W 006°46'0 0.0
2015-Aug-29 12:33N 62°00' W 006°46'0 0.0
2015-Aug-29 11:33N 62°00' W 006°46'0 0.0
2015-Aug-29 10:33N 62°00' W 006°46'0 0.0
2015-Aug-29 09:33N 62°00' W 006°46'0 0.0
2015-Aug-29 08:33N 62°00' W 006°46'0 0.0
2015-Aug-29 07:34N 62°00' W 006°46'0 0.0
2015-Aug-29 06:33N 62°00' W 006°46'0 0.0
2015-Aug-29 05:33N 62°00' W 006°46'0 0.0
2015-Aug-29 04:33N 62°00' W 006°46'0 0.0
2015-Aug-29 03:33N 62°00' W 006°46'0 0.0
2015-Aug-29 02:33N 62°00' W 006°46'0 0.0
2015-Aug-29 01:33N 62°00' W 006°46'0 0.0
2015-Aug-29 00:32N 62°00' W 006°46'0 0.0
2015-Aug-28 23:32N 62°00' W 006°46'0 0.0
2015-Aug-28 22:33N 62°00' W 006°46'0 0.0
2015-Aug-28 21:33N 62°00' W 006°46'0 0.0
2015-Aug-28 20:33N 62°00' W 006°46'0 0.0
2015-Aug-28 19:33N 62°00' W 006°46'0 0.0
2015-Aug-28 18:33N 62°00' W 006°46'0 0.0
2015-Aug-28 17:33N 62°00' W 006°46'3 2.9
2015-Aug-28 16:33N 62°03' W 006°47'0 0.4
2015-Aug-28 15:32N 62°04' W 006°48'6 6.2
2015-Aug-28 14:33N 62°10' W 006°46'3 2.7
2015-Aug-28 13:33N 62°07' W 006°45'3 3.0
2015-Aug-28 12:33N 62°04' W 006°44'10 9.8
2015-Aug-28 11:34N 62°10' W 006°27'1 1.0
2015-Aug-28 10:16N 62°11' W 006°26'6 8.6
2015-Aug-28 09:33N 62°05' W 006°31'8 7.4
2015-Aug-28 08:31N 62°01' W 006°44'1 1.2
2015-Aug-28 07:33N 62°00' W 006°46'4 0.1
2015-Aug-26 13:33N 61°57' W 006°44'34 1.9
2015-Aug-25 19:27N 61°43' W 007°50'12 3.8
2015-Aug-25 16:25N 61°54' W 007°47'7 3.2
2015-Aug-25 14:19N 61°56' W 007°33'19 1.1
2015-Aug-24 20:26N 61°40' W 007°57'2 2.9
2015-Aug-24 19:33N 61°42' W 007°53'3 0.8
2015-Aug-24 16:15N 61°42' W 007°48'2 2.6
2015-Aug-24 15:32N 61°42' W 007°44'8 2.8
2015-Aug-24 12:32N 61°40' W 007°26'4 3.5
2015-Aug-24 11:17N 61°44' W 007°23'1 1.1
2015-Aug-24 10:28N 61°45' W 007°23'9 2.2
2015-Aug-24 06:30N 61°48' W 007°05'4 4.4
2015-Aug-24 05:30N 61°51' W 007°12'4 3.7
2015-Aug-24 04:30N 61°53' W 007°19'4 4.6
2015-Aug-24 03:33N 61°56' W 007°14'4 3.0
2015-Aug-24 02:17N 61°55' W 007°21'3 3.6
2015-Aug-24 01:33N 61°53' W 007°24'4 3.7
2015-Aug-24 00:30N 61°49' W 007°21'  

Dump ship's entire track history